logo
Search for airport 
image banner adimage banner adimage banner ad
image banner ad

MMCYO - Rancho El Coyote

Located in Guerrero, Mexico

ICAO - , IATA -

Data provided by Airmate  

General information

Coordinates: N27°56'58" W100°17'4"
Elevation is 787 feet MSL.
Magnetic variation is 4° East
View others Airports in Coahuila

Operational data

Special qualification required
Current time UTC:
Current local time:
Weather at : KCZT - Dimmit County ( 78 km )
METAR: KCZT 180715Z AUTO 12005KT 10SM CLR 23/22 A2987 RMK AO2
View NOTAMs / SUP AIP / TFR affecting this airport [VIEW]
Communications frequencies: [VIEW]

Runways:

RWY identifierQFULength (ft)Width (ft)SurfaceLDA (ft)
0992°187444DIRT
27272°187444DIRT
17175°186261DIRT
35355°186261DIRT

Airport contact information

Address: Guerrero Mexico

Satellite view of MMCYO